Takamatsu, Japan
Current Conditions -  °F | °C
As of 9:00 AM on Saturday 25 Oct 2014 (Local Time) from RJOT Reporting Station
Broken Clouds Broken Clouds  
Wind Chill: 61°   Ceiling: 9000
Heat Index: 61°   Visibility: 6mi
Dew Point: 55°   Wind: 2mph
Humidity: 82%   Direction: NA
Pressure: 30.18"   Gusts: NA
Location:  34.34°N, 134.04°E
Report Text: RJOT 250000Z VRB02KT 9999 FEW005 SCT070 BKN090 16/13 Q1022
Loading
Personal Weather Stations






























Interactive Weather Map
Tropical Storm Tracking
New forecast layout! Learn more

10-Day Weather Forecast

Advertisements
Track Severe Weather on mobile